Time;durP1;ratioP1;P1;durP2;ratioP2;P2;SDS_P1;SDS_P2;PMS_P1;PMS_P2;Temp;Humidity;BMP_temperature;BMP_pressure;BME280_temperature;BME280_humidity;BME280_pressure;Samples;Min_cycle;Max_cycle;Signal;HPM_P1;HPM_P2
2022/05/06 00:00:11;;;;;;;3.30;3.20;;;19.40;67.40;;;;;;5045576;28;44087;-71
2022/05/06 00:02:39;;;;;;;2.80;2.80;;;19.40;67.80;;;;;;5044911;28;44425;-70
2022/05/06 00:05:08;;;;;;;2.77;2.77;;;19.50;67.80;;;;;;5046356;28;43821;-69
2022/05/06 00:07:36;;;;;;;3.07;2.97;;;19.60;67.20;;;;;;5045157;28;44122;-70
2022/05/06 00:10:06;;;;;;;2.90;2.90;;;19.70;66.90;;;;;;5041900;28;45156;-71
2022/05/06 00:12:34;;;;;;;2.73;2.73;;;19.70;66.90;;;;;;5045200;28;43454;-70
2022/05/06 00:15:06;;;;;;;2.67;2.67;;;19.60;66.80;;;;;;5045674;28;44007;-71
2022/05/06 00:17:35;;;;;;;3.10;3.00;;;19.60;67.00;;;;;;5045097;28;44075;-70
2022/05/06 00:20:06;;;;;;;3.10;3.00;;;19.50;67.20;;;;;;5045085;28;43926;-70
2022/05/06 00:22:33;;;;;;;2.67;2.67;;;19.40;67.40;;;;;;5045066;28;43943;-71
2022/05/06 00:25:01;;;;;;;2.63;2.63;;;19.40;67.60;;;;;;5045837;28;44008;-71
2022/05/06 00:27:29;;;;;;;2.90;2.90;;;19.30;67.60;;;;;;5044738;28;43986;-69
2022/05/06 00:29:57;;;;;;;3.10;3.03;;;19.30;67.70;;;;;;5043795;28;44745;-71
2022/05/06 00:32:30;;;;;;;2.80;2.80;;;19.30;67.80;;;;;;5043173;28;43996;-70
2022/05/06 00:34:58;;;;;;;3.40;3.30;;;19.30;67.90;;;;;;5045418;28;43872;-70
2022/05/06 00:37:26;;;;;;;3.00;3.00;;;19.30;68.00;;;;;;5046842;28;44001;-70
2022/05/06 00:39:54;;;;;;;2.80;2.70;;;19.30;68.00;;;;;;5047152;28;45551;-70
2022/05/06 00:42:23;;;;;;;3.20;3.10;;;19.20;68.00;;;;;;5048300;28;43380;-70
2022/05/06 00:44:51;;;;;;;2.73;2.63;;;19.20;68.10;;;;;;5047299;28;43948;-71
2022/05/06 00:47:20;;;;;;;2.87;2.80;;;19.30;68.40;;;;;;5047060;28;47263;-70
2022/05/06 00:49:49;;;;;;;3.00;2.90;;;19.40;68.10;;;;;;5048174;28;43358;-72
2022/05/06 00:52:17;;;;;;;3.13;3.10;;;19.60;67.80;;;;;;5043620;28;44014;-71
2022/05/06 00:54:45;;;;;;;3.23;3.13;;;19.70;68.00;;;;;;5045452;28;44106;-71
2022/05/06 00:57:13;;;;;;;3.23;3.13;;;19.90;66.80;;;;;;5046736;28;45326;-70
2022/05/06 01:02:24;;;;;;;2.60;2.60;;;20.30;65.70;;;;;;5048274;28;44267;-71
2022/05/06 01:04:57;;;;;;;2.97;2.87;;;20.50;65.10;;;;;;5047381;28;43986;-72
2022/05/06 01:07:25;;;;;;;2.60;2.60;;;20.70;64.60;;;;;;5041138;28;43823;-71
2022/05/06 01:09:54;;;;;;;3.23;3.13;;;20.80;64.10;;;;;;5040227;28;43412;-72
2022/05/06 01:12:22;;;;;;;3.00;2.90;;;20.90;63.70;;;;;;5041706;28;43790;-71
2022/05/06 01:14:50;;;;;;;2.70;2.70;;;21.00;63.40;;;;;;5048399;28;43690;-72
2022/05/06 01:17:33;;;;;;;2.90;2.80;;;21.00;63.20;;;;;;5041127;28;46190;-71
2022/05/06 01:20:04;;;;;;;3.37;3.27;;;20.90;63.50;;;;;;5045100;28;44883;-72
2022/05/06 01:22:33;;;;;;;2.97;2.93;;;20.70;63.90;;;;;;5047368;28;44241;-72
2022/05/06 01:25:01;;;;;;;3.23;3.13;;;20.50;64.50;;;;;;5048675;28;44006;-71
2022/05/06 01:27:29;;;;;;;3.20;3.10;;;20.30;64.80;;;;;;5047276;28;43754;-72
2022/05/06 01:29:57;;;;;;;2.97;2.87;;;20.10;65.10;;;;;;5048017;28;43956;-72
2022/05/06 01:32:26;;;;;;;3.00;3.00;;;20.00;65.60;;;;;;5047406;28;43899;-71
2022/05/06 01:34:54;;;;;;;3.20;3.10;;;19.90;66.70;;;;;;5048166;28;43979;-71
2022/05/06 01:37:23;;;;;;;3.00;2.90;;;19.90;66.80;;;;;;5047573;28;45077;-72
2022/05/06 01:39:54;;;;;;;3.10;3.10;;;20.00;66.50;;;;;;5047433;28;43491;-72
2022/05/06 01:42:24;;;;;;;3.50;3.40;;;20.00;66.20;;;;;;5046546;28;44028;-71
2022/05/06 01:45:02;;;;;;;3.20;3.10;;;20.00;66.20;;;;;;5046830;28;44111;-72
2022/05/06 01:47:31;;;;;;;2.90;2.90;;;19.90;66.30;;;;;;5045057;28;45001;-72
2022/05/06 01:50:04;;;;;;;2.80;2.80;;;19.80;66.20;;;;;;5047710;28;43456;-71
2022/05/06 01:52:33;;;;;;;2.77;2.77;;;19.70;66.40;;;;;;5045710;28;43959;-71
2022/05/06 01:55:02;;;;;;;3.10;3.00;;;19.60;66.70;;;;;;5046535;28;44032;-71
2022/05/06 01:57:37;;;;;;;3.00;3.00;;;19.50;66.90;;;;;;5042535;28;44058;-72
2022/05/06 02:00:07;;;;;;;3.17;3.07;;;19.50;67.10;;;;;;5046123;28;43720;-72
2022/05/06 02:02:44;;;;;;;3.37;3.27;;;19.50;67.30;;;;;;5043559;28;43838;-72
2022/05/06 02:05:17;;;;;;;3.20;3.10;;;19.40;68.00;;;;;;5046280;28;44096;-71
2022/05/06 02:07:49;;;;;;;3.03;3.00;;;19.50;68.10;;;;;;5044957;28;44976;-71
2022/05/06 02:10:20;;;;;;;3.00;2.90;;;19.60;67.80;;;;;;5047379;28;43943;-72
2022/05/06 02:12:51;;;;;;;2.80;2.80;;;19.80;67.30;;;;;;5045522;28;43516;-72
2022/05/06 02:15:40;;;;;;;3.13;3.10;;;20.00;66.80;;;;;;5039302;28;44036;-71
2022/05/06 02:18:27;;;;;;;3.23;3.13;;;20.00;66.20;;;;;;5041457;28;45752;-71
2022/05/06 02:21:27;;;;;;;3.10;3.00;;;20.00;66.90;;;;;;5006676;28;43461;-71
2022/05/06 02:24:10;;;;;;;3.50;3.40;;;19.90;66.30;;;;;;5046047;28;43964;-72
2022/05/06 02:26:58;;;;;;;2.80;2.80;;;19.80;66.30;;;;;;5044629;28;43326;-72
2022/05/06 02:29:27;;;;;;;2.90;2.80;;;19.70;66.50;;;;;;5044796;28;44036;-71
2022/05/06 02:34:42;;;;;;;3.20;3.10;;;19.50;66.90;;;;;;5044383;28;44040;-71
2022/05/06 02:37:12;;;;;;;3.47;3.27;;;19.50;67.80;;;;;;5045662;28;44015;-71
2022/05/06 02:39:47;;;;;;;2.80;2.80;;;19.60;67.90;;;;;;5044540;28;44747;-72
2022/05/06 02:42:24;;;;;;;3.20;3.20;;;19.70;67.50;;;;;;5046702;28;43965;-72
2022/05/06 02:44:52;;;;;;;3.13;3.03;;;19.80;67.30;;;;;;5044977;28;43968;-71
2022/05/06 02:47:22;;;;;;;2.80;2.80;;;19.70;66.90;;;;;;5045506;28;43599;-71
2022/05/06 02:49:52;;;;;;;2.80;2.80;;;19.60;66.70;;;;;;5045045;28;44008;-70
2022/05/06 02:52:20;;;;;;;3.10;3.00;;;19.60;66.80;;;;;;5046245;28;43436;-71
2022/05/06 02:54:49;;;;;;;2.90;2.80;;;19.50;67.00;;;;;;5044692;28;43964;-72
2022/05/06 02:57:22;;;;;;;2.80;2.80;;;19.50;67.30;;;;;;5045479;28;43489;-70
2022/05/06 02:59:50;;;;;;;2.77;2.77;;;19.40;67.40;;;;;;5043732;28;45459;-71
2022/05/06 03:02:22;;;;;;;3.20;3.10;;;19.40;67.50;;;;;;5045162;28;44450;-72
2022/05/06 03:04:51;;;;;;;2.87;2.87;;;19.40;67.70;;;;;;5047676;28;43313;-71
2022/05/06 03:07:21;;;;;;;2.80;2.80;;;19.30;67.80;;;;;;5045056;28;43979;-72
2022/05/06 03:09:53;;;;;;;3.03;3.03;;;19.30;68.30;;;;;;5044669;28;43992;-72
2022/05/06 03:12:26;;;;;;;2.90;2.90;;;19.50;68.20;;;;;;5038818;28;43987;-72
2022/05/06 03:15:10;;;;;;;2.70;2.70;;;19.60;67.70;;;;;;5045252;28;44027;-71
2022/05/06 03:17:43;;;;;;;2.60;2.60;;;19.80;67.00;;;;;;5044608;28;43987;-71
2022/05/06 03:20:12;;;;;;;2.73;2.73;;;20.00;66.60;;;;;;5058256;28;46430;-71
2022/05/06 03:22:42;;;;;;;2.83;2.80;;;20.00;67.10;;;;;;5045608;28;43935;-72
2022/05/06 03:25:10;;;;;;;2.50;2.50;;;19.90;66.30;;;;;;5041820;28;44037;-71
2022/05/06 03:30:25;;;;;;;2.50;2.50;;;19.70;66.40;;;;;;5037918;28;45871;-71
2022/05/06 03:32:59;;;;;;;2.77;2.77;;;19.60;66.70;;;;;;5038637;28;44253;-72
2022/05/06 03:35:29;;;;;;;2.97;2.97;;;19.50;66.90;;;;;;5043961;28;44019;-71
2022/05/06 03:37:57;;;;;;;2.70;2.70;;;19.50;67.20;;;;;;5044575;28;44194;-72
2022/05/06 03:40:25;;;;;;;2.83;2.83;;;19.40;67.30;;;;;;5043867;28;44134;-71
2022/05/06 03:42:56;;;;;;;2.70;2.70;;;19.40;68.00;;;;;;5044270;28;43951;-72
2022/05/06 03:45:24;;;;;;;2.50;2.50;;;19.40;67.90;;;;;;5044287;28;43907;-72
2022/05/06 03:47:54;;;;;;;2.50;2.50;;;19.60;67.90;;;;;;5044187;28;44054;-71
2022/05/06 03:53:09;;;;;;;2.73;2.73;;;19.80;66.70;;;;;;5040951;28;45256;-71
2022/05/06 03:55:38;;;;;;;3.00;3.00;;;19.90;66.70;;;;;;5042341;28;44027;-72
2022/05/06 03:58:08;;;;;;;3.00;2.90;;;19.80;66.50;;;;;;5044750;28;44217;-72
2022/05/06 04:00:36;;;;;;;2.70;2.70;;;19.70;66.60;;;;;;5043938;28;45649;-71
2022/05/06 04:03:08;;;;;;;3.10;3.10;;;19.60;66.70;;;;;;5053418;28;45127;-73
2022/05/06 04:05:38;;;;;;;2.80;2.80;;;19.50;66.90;;;;;;5044189;28;43980;-72
2022/05/06 04:08:07;;;;;;;2.53;2.50;;;19.50;67.20;;;;;;5044494;28;43942;-71
2022/05/06 04:10:36;;;;;;;2.50;2.50;;;19.40;67.30;;;;;;5045270;28;45409;-72
2022/05/06 04:13:04;;;;;;;2.60;2.60;;;19.40;67.50;;;;;;5064316;28;44843;-72
2022/05/06 04:15:35;;;;;;;2.70;2.60;;;19.30;68.00;;;;;;5048024;28;43811;-72
2022/05/06 04:18:06;;;;;;;2.80;2.80;;;19.40;68.20;;;;;;5042355;28;43390;-72
2022/05/06 04:23:32;;;;;;;2.77;2.77;;;19.60;67.40;;;;;;5047509;28;43971;-71
2022/05/06 04:26:06;;;;;;;2.50;2.40;;;19.70;67.00;;;;;;5063197;28;43901;-72
2022/05/06 04:28:38;;;;;;;2.70;2.60;;;19.60;66.90;;;;;;5064997;28;44400;-70
2022/05/06 04:31:07;;;;;;;2.60;2.60;;;19.50;66.90;;;;;;5049743;28;43706;-72
2022/05/06 04:33:39;;;;;;;2.30;2.30;;;19.50;67.20;;;;;;5040873;28;43969;-72
2022/05/06 04:36:10;;;;;;;2.67;2.50;;;19.40;67.30;;;;;;5058390;28;44027;-71
2022/05/06 04:38:42;;;;;;;2.70;2.60;;;19.30;67.40;;;;;;5042151;28;43493;-72
2022/05/06 04:41:11;;;;;;;2.87;2.37;;;19.30;67.60;;;;;;5047395;28;45983;-72
2022/05/06 04:43:40;;;;;;;2.30;2.20;;;19.30;67.70;;;;;;5047528;28;44003;-71
2022/05/06 04:46:09;;;;;;;5.63;2.70;;;19.20;67.70;;;;;;5048146;28;43445;-72
2022/05/06 04:48:38;;;;;;;5.17;2.80;;;19.20;68.20;;;;;;5045879;28;43904;-72
2022/05/06 04:51:11;;;;;;;3.23;2.63;;;19.30;68.10;;;;;;5047568;28;43976;-72
2022/05/06 04:53:39;;;;;;;6.20;2.90;;;19.50;67.80;;;;;;5047644;28;44023;-71
2022/05/06 04:56:07;;;;;;;3.10;2.60;;;19.70;67.30;;;;;;5049470;28;43999;-71
2022/05/06 04:58:38;;;;;;;2.77;2.57;;;19.90;66.80;;;;;;5047806;28;44168;-71
2022/05/06 05:01:13;;;;;;;3.17;2.50;;;19.90;66.40;;;;;;5047442;28;46219;-72
2022/05/06 05:03:41;;;;;;;3.20;2.90;;;19.90;66.20;;;;;;5047064;28;44668;-72
2022/05/06 05:06:10;;;;;;;2.80;2.60;;;19.80;66.20;;;;;;5047669;28;44032;-72
2022/05/06 05:08:39;;;;;;;2.50;2.40;;;19.70;66.30;;;;;;5044304;28;44051;-72
2022/05/06 05:11:08;;;;;;;2.70;2.50;;;19.60;66.50;;;;;;5044687;28;44013;-70
2022/05/06 05:13:43;;;;;;;2.40;2.30;;;19.50;66.80;;;;;;5046929;28;43466;-71
2022/05/06 05:16:21;;;;;;;2.50;2.40;;;19.50;67.20;;;;;;5047692;28;43413;-71
2022/05/06 05:18:49;;;;;;;2.67;2.60;;;19.40;67.30;;;;;;5048421;28;43816;-71
2022/05/06 05:21:18;;;;;;;2.50;2.40;;;19.30;67.70;;;;;;5047061;28;45496;-71
2022/05/06 05:23:47;;;;;;;2.63;2.47;;;19.40;68.00;;;;;;5046033;28;43875;-71
2022/05/06 05:26:15;;;;;;;2.80;2.70;;;19.50;67.80;;;;;;5063681;28;43311;-72
2022/05/06 05:28:45;;;;;;;2.70;2.50;;;19.60;67.30;;;;;;5057244;28;43527;-71
2022/05/06 05:31:13;;;;;;;3.23;2.60;;;19.70;67.10;;;;;;5040421;28;46705;-72
2022/05/06 05:33:42;;;;;;;2.40;2.30;;;19.60;66.80;;;;;;5040134;28;44840;-71
2022/05/06 05:36:10;;;;;;;2.57;2.47;;;19.60;66.90;;;;;;5046783;28;43928;-72
2022/05/06 05:38:39;;;;;;;3.10;2.87;;;19.50;67.10;;;;;;5047019;28;44051;-71
2022/05/06 05:41:08;;;;;;;2.53;2.43;;;19.40;67.30;;;;;;5046548;28;44962;-72
2022/05/06 05:49:12;;;;;;;2.53;2.43;;;19.30;67.70;;;;;;5030226;28;43962;-70
2022/05/06 05:51:43;;;;;;;2.60;2.50;;;19.30;67.90;;;;;;5045896;28;44278;-72
2022/05/06 05:54:11;;;;;;;2.53;2.33;;;19.20;68.20;;;;;;5030022;28;45442;-72
2022/05/06 05:56:39;;;;;;;2.40;2.30;;;19.30;68.40;;;;;;5029858;28;44014;-72
2022/05/06 05:59:10;;;;;;;2.17;2.13;;;19.40;68.20;;;;;;5024106;28;44043;-71
2022/05/06 06:01:39;;;;;;;2.27;2.27;;;19.60;67.90;;;;;;5029412;28;45968;-72
2022/05/06 06:04:09;;;;;;;2.33;2.23;;;19.80;67.20;;;;;;5029764;28;43909;-71
2022/05/06 06:06:43;;;;;;;2.53;2.43;;;19.90;66.60;;;;;;5029418;28;43993;-72
2022/05/06 06:09:14;;;;;;;2.43;2.33;;;19.90;66.50;;;;;;5029939;28;44123;-73
2022/05/06 06:11:43;;;;;;;2.17;2.10;;;19.90;67.30;;;;;;5045366;28;45929;-72
2022/05/06 06:14:14;;;;;;;2.20;2.20;;;19.80;66.60;;;;;;5029172;28;44345;-71
2022/05/06 06:16:42;;;;;;;2.27;2.20;;;19.70;66.70;;;;;;5029437;28;43911;-70
2022/05/06 06:19:10;;;;;;;2.33;2.17;;;19.60;67.00;;;;;;5029899;28;44021;-70
2022/05/06 06:21:44;;;;;;;1.90;1.80;;;19.50;67.20;;;;;;5029023;28;43967;-71
2022/05/06 06:24:15;;;;;;;2.27;2.20;;;19.50;67.40;;;;;;5029047;28;44890;-71
2022/05/06 06:26:44;;;;;;;1.97;1.97;;;19.40;67.70;;;;;;5028936;28;43986;-71
2022/05/06 06:29:17;;;;;;;2.30;2.30;;;19.40;68.80;;;;;;5029741;28;44024;-71
2022/05/06 06:31:45;;;;;;;2.10;2.10;;;19.50;67.80;;;;;;5028805;28;46016;-72
2022/05/06 06:34:14;;;;;;;2.10;2.10;;;19.60;67.40;;;;;;5028935;28;43896;-72
2022/05/06 06:36:43;;;;;;;2.07;1.97;;;19.70;67.10;;;;;;5028683;28;44061;-72
2022/05/06 06:39:11;;;;;;;2.23;2.17;;;19.60;66.90;;;;;;5046030;28;43978;-72
2022/05/06 06:41:44;;;;;;;2.00;2.00;;;19.60;66.90;;;;;;5044887;28;43916;-70
2022/05/06 06:44:12;;;;;;;2.30;2.20;;;19.50;67.10;;;;;;5046958;28;43905;-72
2022/05/06 06:47:09;;;;;;;1.97;1.97;;;19.50;67.30;;;;;;5029041;28;44072;-72
2022/05/06 06:49:54;;;;;;;2.00;2.00;;;19.40;67.50;;;;;;5030714;28;44190;-72
2022/05/06 06:52:42;;;;;;;2.03;2.03;;;19.40;67.70;;;;;;5043772;28;43928;-71
2022/05/06 06:55:10;;;;;;;2.07;2.07;;;19.30;67.70;;;;;;5038896;28;44190;-71
2022/05/06 06:57:38;;;;;;;2.07;2.00;;;19.30;67.90;;;;;;5047180;28;43365;-71
2022/05/06 07:00:08;;;;;;;1.83;1.83;;;19.30;68.30;;;;;;5047590;28;43941;-72
2022/05/06 07:02:39;;;;;;;2.03;1.93;;;19.30;68.40;;;;;;5046718;28;43686;-71
2022/05/06 07:05:08;;;;;;;2.00;2.00;;;19.50;68.10;;;;;;5039698;28;44382;-72
2022/05/06 07:13:34;;;;;;;2.00;2.00;;;19.90;66.50;;;;;;5044776;28;46686;-72
2022/05/06 07:16:02;;;;;;;1.83;1.83;;;19.90;66.50;;;;;;5046890;28;43922;-71
2022/05/06 07:18:30;;;;;;;1.97;1.97;;;19.80;66.50;;;;;;5046371;28;43422;-72
2022/05/06 07:20:58;;;;;;;1.80;1.80;;;19.70;66.70;;;;;;5047346;28;43975;-71
2022/05/06 07:23:26;;;;;;;1.80;1.80;;;19.60;66.90;;;;;;5030775;28;45451;-71
2022/05/06 07:25:56;;;;;;;1.80;1.80;;;19.50;67.10;;;;;;5046656;28;44009;-72
2022/05/06 07:28:24;;;;;;;1.80;1.80;;;19.40;67.30;;;;;;5046381;28;43725;-71
2022/05/06 07:30:51;;;;;;;1.80;1.80;;;19.40;67.60;;;;;;5046829;28;43897;-71
2022/05/06 07:33:19;;;;;;;1.90;1.90;;;19.30;67.60;;;;;;5046499;28;43633;-71
2022/05/06 07:35:47;;;;;;;1.90;1.90;;;19.30;68.20;;;;;;5045876;28;43418;-72
2022/05/06 07:38:15;;;;;;;1.80;1.80;;;19.40;68.00;;;;;;5046191;28;43893;-72
2022/05/06 07:40:44;;;;;;;1.87;1.80;;;19.60;67.80;;;;;;5046242;28;43977;-72
2022/05/06 07:43:14;;;;;;;1.70;1.70;;;19.80;67.20;;;;;;5046245;28;43847;-71
2022/05/06 07:45:42;;;;;;;1.83;1.83;;;19.80;66.70;;;;;;5045391;28;43892;-71
2022/05/06 07:48:13;;;;;;;1.70;1.70;;;19.80;66.60;;;;;;5046489;28;43999;-71
2022/05/06 07:50:44;;;;;;;1.83;1.80;;;19.70;66.60;;;;;;5037524;28;43960;-72
2022/05/06 07:53:13;;;;;;;1.80;1.80;;;19.60;66.70;;;;;;5046399;28;44067;-72
2022/05/06 07:55:47;;;;;;;1.90;1.90;;;19.50;67.00;;;;;;5045735;28;43351;-72
2022/05/06 07:58:16;;;;;;;1.93;1.83;;;19.50;67.30;;;;;;5045961;28;43925;-72
2022/05/06 08:00:44;;;;;;;1.50;1.50;;;19.40;68.40;;;;;;5040218;28;43906;-72
2022/05/06 08:05:59;;;;;;;1.73;1.73;;;19.30;67.80;;;;;;5046044;28;44254;-71
2022/05/06 08:08:27;;;;;;;1.70;1.70;;;19.20;68.30;;;;;;5045879;28;43516;-71
2022/05/06 08:10:55;;;;;;;1.57;1.57;;;19.30;68.30;;;;;;5046467;28;43922;-70
2022/05/06 08:13:25;;;;;;;1.80;1.80;;;19.50;67.90;;;;;;5044364;28;46396;-71
2022/05/06 08:15:55;;;;;;;1.80;1.80;;;19.60;67.50;;;;;;5046012;28;43904;-72
2022/05/06 08:18:24;;;;;;;1.50;1.50;;;19.60;67.10;;;;;;5045689;28;43480;-71
2022/05/06 08:20:52;;;;;;;1.60;1.60;;;19.60;67.10;;;;;;5046404;28;43859;-71
2022/05/06 08:23:21;;;;;;;1.60;1.60;;;19.50;67.20;;;;;;5027429;28;45408;-72
2022/05/06 08:25:49;;;;;;;1.63;1.63;;;19.40;67.50;;;;;;5027712;28;45013;-72
2022/05/06 08:28:19;;;;;;;1.73;1.73;;;19.30;67.60;;;;;;5045872;28;43777;-71
2022/05/06 08:30:48;;;;;;;1.50;1.50;;;19.30;67.80;;;;;;5046204;28;43947;-71
2022/05/06 08:33:17;;;;;;;1.60;1.60;;;19.20;67.90;;;;;;5045506;28;43987;-72
2022/05/06 08:35:45;;;;;;;1.63;1.63;;;19.20;68.10;;;;;;5045696;28;44000;-71
2022/05/06 08:38:14;;;;;;;1.50;1.50;;;19.20;68.20;;;;;;5045805;28;43443;-72
2022/05/06 08:40:42;;;;;;;1.60;1.60;;;19.20;68.40;;;;;;5045688;28;43902;-71
2022/05/06 08:43:10;;;;;;;1.57;1.57;;;19.20;68.70;;;;;;5045900;28;44182;-72
2022/05/06 08:51:10;;;;;;;1.50;1.50;;;19.70;67.50;;;;;;5042110;28;43983;-72
2022/05/06 08:53:39;;;;;;;1.60;1.60;;;19.80;66.70;;;;;;5045627;28;43925;-72
2022/05/06 08:56:07;;;;;;;1.90;1.57;;;19.90;66.60;;;;;;5045624;28;44032;-71
2022/05/06 08:58:37;;;;;;;1.70;1.70;;;19.80;66.30;;;;;;5048135;28;43924;-71
2022/05/06 09:01:06;;;;;;;1.50;1.50;;;19.70;66.60;;;;;;5049748;28;43969;-72
2022/05/06 09:03:44;;;;;;;1.70;1.70;;;19.60;66.70;;;;;;5048441;28;44873;-71
2022/05/06 09:06:17;;;;;;;2.60;1.60;;;19.50;67.00;;;;;;5049070;28;43385;-71
2022/05/06 09:08:45;;;;;;;1.37;1.37;;;19.50;68.00;;;;;;5048963;28;43945;-72
2022/05/06 09:11:14;;;;;;;1.57;1.57;;;19.40;67.00;;;;;;5030855;28;43941;-72
2022/05/06 09:13:52;;;;;;;1.93;1.93;;;19.30;67.60;;;;;;5030341;28;45941;-71
2022/05/06 09:19:16;;;;;;;2.60;2.40;;;19.40;68.00;;;;;;5044537;28;44497;-71
2022/05/06 09:21:59;;;;;;;7.97;3.10;;;19.60;67.50;;;;;;5048707;28;43992;-72
2022/05/06 09:24:28;;;;;;;4.50;3.30;;;19.80;66.90;;;;;;5048177;28;43616;-72
2022/05/06 09:26:57;;;;;;;7.53;4.03;;;19.80;66.50;;;;;;5046673;28;45443;-72
2022/05/06 09:29:35;;;;;;;8.10;4.17;;;19.80;66.40;;;;;;5048524;28;43846;-71
2022/05/06 09:32:30;;;;;;;8.17;4.37;;;19.70;66.60;;;;;;5048772;28;43975;-71
2022/05/06 09:35:00;;;;;;;6.97;4.37;;;19.60;66.80;;;;;;5048341;28;43928;-71
2022/05/06 09:37:33;;;;;;;7.33;4.07;;;19.50;67.10;;;;;;5048206;28;43711;-71
2022/05/06 09:40:03;;;;;;;11.77;4.37;;;19.40;67.20;;;;;;5048070;28;44119;-72
2022/05/06 09:42:32;;;;;;;10.13;4.30;;;19.40;67.60;;;;;;5048376;28;43940;-72
2022/05/06 09:45:00;;;;;;;6.73;4.20;;;19.30;67.60;;;;;;5047280;28;44901;-71
2022/05/06 09:47:28;;;;;;;6.80;4.37;;;19.30;68.00;;;;;;5047624;28;44037;-71
2022/05/06 09:49:56;;;;;;;10.00;4.30;;;19.30;68.20;;;;;;5048311;28;44341;-72
2022/05/06 09:52:25;;;;;;;6.43;3.70;;;19.50;67.90;;;;;;5030378;28;43911;-72
2022/05/06 09:54:53;;;;;;;6.23;3.83;;;19.60;67.60;;;;;;5046325;28;44339;-72
2022/05/06 09:57:22;;;;;;;5.27;3.80;;;19.60;67.10;;;;;;5048052;28;43840;-73
2022/05/06 09:59:50;;;;;;;7.73;4.00;;;19.60;67.00;;;;;;5048056;28;43400;-71
2022/05/06 10:02:18;;;;;;;6.93;3.83;;;19.50;67.00;;;;;;5029834;28;44029;-72
2022/05/06 10:04:48;;;;;;;6.43;4.07;;;19.50;67.30;;;;;;5029251;28;46165;-73
2022/05/06 10:07:18;;;;;;;4.03;3.67;;;19.40;67.60;;;;;;5040881;28;43948;-72
2022/05/06 10:09:53;;;;;;;6.83;3.80;;;19.30;67.60;;;;;;5040592;28;43436;-72
2022/05/06 10:12:21;;;;;;;7.43;3.87;;;19.30;67.80;;;;;;5024419;28;43773;-72
2022/05/06 10:14:49;;;;;;;5.20;3.43;;;19.30;68.00;;;;;;5047432;28;43989;-71
2022/05/06 10:17:51;;;;;;;4.90;3.70;;;19.30;68.10;;;;;;5047719;28;44162;-71
2022/05/06 10:21:01;;;;;;;4.27;3.87;;;19.20;68.20;;;;;;5047716;28;44069;-71
2022/05/06 10:23:49;;;;;;;4.20;3.80;;;19.20;68.50;;;;;;5045634;28;43957;-72
2022/05/06 10:26:41;;;;;;;4.83;3.53;;;19.40;68.20;;;;;;5047435;28;43900;-72
2022/05/06 10:35:11;;;;;;;3.47;2.83;;;19.90;66.40;;;;;;5046824;28;43916;-72
2022/05/06 10:37:40;;;;;;;6.97;3.60;;;19.80;65.80;;;;;;5041580;28;44454;-72
2022/05/06 10:40:29;;;;;;;3.70;3.20;;;19.70;66.30;;;;;;5047156;28;43851;-71
2022/05/06 10:42:59;;;;;;;4.67;3.10;;;19.60;66.60;;;;;;5043333;28;43978;-71
2022/05/06 10:45:29;;;;;;;3.40;3.10;;;19.50;66.90;;;;;;5047036;28;43992;-71
2022/05/06 10:47:57;;;;;;;4.87;3.10;;;19.50;67.20;;;;;;5046973;28;43866;-72
2022/05/06 10:50:29;;;;;;;2.87;2.67;;;19.40;67.50;;;;;;5046621;28;44299;-71
2022/05/06 10:53:00;;;;;;;5.13;3.30;;;19.30;67.60;;;;;;5047086;28;43901;-72
2022/05/06 10:55:29;;;;;;;2.80;2.47;;;19.30;68.00;;;;;;5047261;28;43960;-72
2022/05/06 10:58:05;;;;;;;4.70;3.27;;;19.30;68.00;;;;;;5047065;28;43749;-72
2022/05/06 11:00:37;;;;;;;4.67;2.80;;;19.50;67.70;;;;;;5046920;28;43953;-71
2022/05/06 11:03:04;;;;;;;6.67;2.77;;;19.70;67.40;;;;;;5047006;28;44041;-71
2022/05/06 11:05:32;;;;;;;3.07;2.80;;;19.90;67.60;;;;;;5047228;28;43889;-71
2022/05/06 11:08:01;;;;;;;7.53;2.87;;;20.10;66.40;;;;;;5042954;28;46231;-72
2022/05/06 11:10:31;;;;;;;4.53;2.80;;;20.20;65.90;;;;;;5046539;28;43976;-72
2022/05/06 11:13:23;;;;;;;3.50;2.87;;;20.20;65.70;;;;;;5046896;28;43953;-71
2022/05/06 11:15:52;;;;;;;2.77;2.67;;;20.10;65.80;;;;;;5047400;28;43993;-71
2022/05/06 11:18:20;;;;;;;3.80;2.70;;;20.00;66.00;;;;;;5046691;28;43914;-72
2022/05/06 11:20:48;;;;;;;3.03;2.80;;;19.80;66.30;;;;;;5045794;28;43964;-72
2022/05/06 11:23:18;;;;;;;3.73;2.37;;;19.70;66.60;;;;;;5047140;28;44524;-72
2022/05/06 11:25:47;;;;;;;2.67;2.47;;;19.60;67.00;;;;;;5046996;28;44207;-71
2022/05/06 11:28:16;;;;;;;2.73;2.47;;;19.50;67.60;;;;;;5044391;28;45818;-71
2022/05/06 11:30:47;;;;;;;2.90;2.60;;;19.50;67.80;;;;;;5046437;28;43990;-72
2022/05/06 11:33:22;;;;;;;2.60;2.40;;;19.60;67.70;;;;;;5046629;28;43934;-71
2022/05/06 11:35:51;;;;;;;2.50;2.40;;;19.80;67.20;;;;;;5046756;28;43853;-71
2022/05/06 11:38:29;;;;;;;3.50;2.60;;;20.00;66.90;;;;;;5042324;28;45712;-71
2022/05/06 11:41:08;;;;;;;2.70;2.53;;;20.10;66.30;;;;;;5039610;28;44216;-71
2022/05/06 11:43:36;;;;;;;2.93;2.60;;;20.10;66.20;;;;;;5041210;28;44042;-72
2022/05/06 11:48:51;;;;;;;2.40;2.30;;;19.90;66.50;;;;;;5028151;28;46031;-72
2022/05/06 11:51:22;;;;;;;2.30;2.20;;;19.80;66.80;;;;;;5046257;28;44025;-72
2022/05/06 11:53:50;;;;;;;2.20;2.10;;;19.60;67.00;;;;;;5044371;28;43439;-72
2022/05/06 11:56:21;;;;;;;2.20;2.10;;;19.60;67.40;;;;;;5046918;28;44137;-71
2022/05/06 11:58:49;;;;;;;2.27;2.10;;;19.50;67.60;;;;;;5046136;28;43932;-72
2022/05/06 12:01:27;;;;;;;2.30;2.20;;;19.40;67.70;;;;;;5027901;28;44742;-72
2022/05/06 12:03:58;;;;;;;2.40;2.30;;;19.40;68.40;;;;;;5046127;28;43781;-71
2022/05/06 12:06:37;;;;;;;2.47;2.27;;;19.50;68.30;;;;;;5046240;28;43977;-72
2022/05/06 12:09:08;;;;;;;2.23;2.07;;;19.60;67.90;;;;;;5045569;28;44015;-71
2022/05/06 12:11:37;;;;;;;2.13;2.03;;;19.80;67.30;;;;;;5045872;28;43992;-73
2022/05/06 12:14:09;;;;;;;2.40;2.20;;;19.90;66.80;;;;;;5046340;28;44016;-71
2022/05/06 12:16:55;;;;;;;2.17;2.07;;;19.90;66.70;;;;;;5046360;28;43410;-72
2022/05/06 12:19:36;;;;;;;2.30;2.20;;;19.90;66.70;;;;;;5045799;28;43960;-71
2022/05/06 12:22:06;;;;;;;2.17;2.07;;;19.80;66.90;;;;;;5039784;28;44268;-72
2022/05/06 12:24:41;;;;;;;2.03;2.00;;;19.70;67.10;;;;;;5046052;28;44044;-72
2022/05/06 12:27:09;;;;;;;2.27;2.17;;;19.60;67.40;;;;;;5046408;28;44032;-71
2022/05/06 12:29:37;;;;;;;2.40;2.30;;;19.50;67.60;;;;;;5028614;28;46822;-72
2022/05/06 12:32:07;;;;;;;2.27;2.07;;;19.50;67.90;;;;;;5047309;28;43930;-71
2022/05/06 12:34:35;;;;;;;2.50;2.30;;;19.40;68.00;;;;;;5048958;28;44032;-72
2022/05/06 12:37:11;;;;;;;2.00;1.90;;;19.40;68.60;;;;;;5049860;28;43838;-71
2022/05/06 12:39:40;;;;;;;2.60;2.40;;;19.50;68.40;;;;;;5048812;28;44806;-71
2022/05/06 12:42:14;;;;;;;2.10;2.00;;;19.70;68.10;;;;;;5049027;28;44694;-71
2022/05/06 12:44:43;;;;;;;2.43;2.10;;;19.80;67.50;;;;;;5049120;28;43934;-72
2022/05/06 12:49:39;;;;;;;2.30;2.20;;;20.00;67.10;;;;;;5031571;28;44022;-71
2022/05/06 12:50:05;;;;;;;2.30;2.20;;;20.00;66.60;;;;;;5043735;28;44084;-71
2022/05/06 12:52:35;;;;;;;2.30;2.10;;;20.00;66.60;;;;;;5049116;28;43886;-72
2022/05/06 12:55:03;;;;;;;2.20;2.10;;;19.90;66.70;;;;;;5049028;28;43939;-71
2022/05/06 12:57:31;;;;;;;2.00;2.00;;;19.80;66.90;;;;;;5049309;28;44010;-72
2022/05/06 12:59:59;;;;;;;2.10;2.00;;;19.70;67.20;;;;;;5048648;28;44788;-72
2022/05/06 13:02:29;;;;;;;2.10;2.00;;;19.60;67.40;;;;;;5048227;28;43864;-71
2022/05/06 13:04:57;;;;;;;2.10;2.00;;;19.60;67.90;;;;;;5048880;28;43854;-71
2022/05/06 13:07:25;;;;;;;1.93;1.93;;;19.50;67.90;;;;;;5031010;28;44037;-71
2022/05/06 13:09:54;;;;;;;1.80;1.80;;;19.50;68.60;;;;;;5048484;28;44671;-72
2022/05/06 13:12:22;;;;;;;2.10;2.00;;;19.50;68.70;;;;;;5048551;28;43980;-72
2022/05/06 13:14:50;;;;;;;2.13;2.03;;;19.60;68.30;;;;;;5048636;28;43947;-71
2022/05/06 13:17:18;;;;;;;2.10;2.10;;;19.80;68.10;;;;;;5047408;28;43535;-72
2022/05/06 13:19:47;;;;;;;2.40;2.20;;;19.90;67.50;;;;;;5048051;28;43945;-71
2022/05/06 13:22:16;;;;;;;2.57;2.37;;;19.90;67.10;;;;;;5048726;28;44133;-71
2022/05/06 13:24:44;;;;;;;2.30;2.20;;;19.90;67.10;;;;;;5048653;28;43949;-71
2022/05/06 13:27:12;;;;;;;2.70;2.50;;;19.80;67.20;;;;;;5049094;28;44054;-72
2022/05/06 13:29:41;;;;;;;2.57;2.30;;;19.70;67.30;;;;;;5048230;28;43838;-72
2022/05/06 13:32:09;;;;;;;2.57;2.37;;;19.70;67.70;;;;;;5030544;28;45090;-72
2022/05/06 13:34:37;;;;;;;3.70;2.60;;;19.60;67.90;;;;;;5048262;28;44017;-72
2022/05/06 13:37:07;;;;;;;2.93;2.60;;;19.50;67.90;;;;;;5048947;28;44005;-72
2022/05/06 13:39:35;;;;;;;2.80;2.60;;;19.50;68.20;;;;;;5046479;28;45916;-71
2022/05/06 13:42:03;;;;;;;3.00;2.23;;;19.40;68.30;;;;;;5047758;28;43373;-72
2022/05/06 13:44:31;;;;;;;2.60;2.40;;;19.40;68.90;;;;;;5047001;28;43379;-71
2022/05/06 13:46:59;;;;;;;2.57;2.43;;;19.50;68.80;;;;;;5030069;28;44323;-72
2022/05/06 13:49:27;;;;;;;2.70;2.37;;;19.60;68.30;;;;;;5047562;28;43929;-72